sensor_id;sensor_type;location;lat;lon;timestamp;pressure;altitude;pressure_sealevel;temperature;humidity
61128;BME280;47013;42.664;23.242;2023-04-08T00:01:37;94087.97;;;5.17;74.85
61128;BME280;47013;42.664;23.242;2023-04-08T00:04:02;94088.34;;;5.16;75.15
61128;BME280;47013;42.664;23.242;2023-04-08T00:06:27;94093.31;;;5.14;75.33
61128;BME280;47013;42.664;23.242;2023-04-08T00:08:53;94087.91;;;5.10;74.82
61128;BME280;47013;42.664;23.242;2023-04-08T00:11:18;94087.84;;;5.07;74.94
61128;BME280;47013;42.664;23.242;2023-04-08T00:13:43;94088.22;;;5.05;74.85
61128;BME280;47013;42.664;23.242;2023-04-08T00:16:08;94080.53;;;5.03;74.97
61128;BME280;47013;42.664;23.242;2023-04-08T00:18:34;94087.03;;;5.02;75.04
61128;BME280;47013;42.664;23.242;2023-04-08T00:20:59;94079.34;;;5.01;75.31
61128;BME280;47013;42.664;23.242;2023-04-08T00:23:24;94084.72;;;5.01;75.31
61128;BME280;47013;42.664;23.242;2023-04-08T00:25:50;94078.56;;;5.00;74.91
61128;BME280;47013;42.664;23.242;2023-04-08T00:28:18;94075.47;;;4.98;75.12
61128;BME280;47013;42.664;23.242;2023-04-08T00:30:43;94077.41;;;4.98;75.19
61128;BME280;47013;42.664;23.242;2023-04-08T00:33:08;94077.34;;;4.94;75.19
61128;BME280;47013;42.664;23.242;2023-04-08T00:35:34;94068.88;;;4.92;75.01
61128;BME280;47013;42.664;23.242;2023-04-08T00:37:59;94072.69;;;4.91;75.36
61128;BME280;47013;42.664;23.242;2023-04-08T00:40:25;94079.97;;;4.91;74.99
61128;BME280;47013;42.664;23.242;2023-04-08T00:42:50;94075.75;;;4.90;75.17
61128;BME280;47013;42.664;23.242;2023-04-08T00:45:16;94084.19;;;4.88;75.38
61128;BME280;47013;42.664;23.242;2023-04-08T00:47:41;94073.81;;;4.87;75.08
61128;BME280;47013;42.664;23.242;2023-04-08T00:50:07;94076.97;;;4.66;75.28
61128;BME280;47013;42.664;23.242;2023-04-08T00:52:34;94074.44;;;4.47;76.37
61128;BME280;47013;42.664;23.242;2023-04-08T00:55:00;94084.06;;;4.51;76.89
61128;BME280;47013;42.664;23.242;2023-04-08T00:57:25;94083.41;;;4.58;76.70
61128;BME280;47013;42.664;23.242;2023-04-08T00:59:50;94082.72;;;4.64;76.39
61128;BME280;47013;42.664;23.242;2023-04-08T01:02:25;94090.47;;;4.69;76.38
61128;BME280;47013;42.664;23.242;2023-04-08T01:07:24;94080.97;;;4.79;76.62
61128;BME280;47013;42.664;23.242;2023-04-08T01:09:52;94087.19;;;4.83;76.39
61128;BME280;47013;42.664;23.242;2023-04-08T01:12:25;94089.50;;;4.85;76.40
61128;BME280;47013;42.664;23.242;2023-04-08T01:15:03;94097.97;;;4.87;76.53
61128;BME280;47013;42.664;23.242;2023-04-08T01:17:29;94095.28;;;4.87;76.56
61128;BME280;47013;42.664;23.242;2023-04-08T01:19:55;94096.84;;;4.88;76.87
61128;BME280;47013;42.664;23.242;2023-04-08T01:22:57;94099.91;;;4.86;77.26
61128;BME280;47013;42.664;23.242;2023-04-08T01:25:38;94089.44;;;4.81;77.00
61128;BME280;47013;42.664;23.242;2023-04-08T01:28:09;94093.28;;;4.80;76.96
61128;BME280;47013;42.664;23.242;2023-04-08T01:30:36;94094.06;;;4.81;77.56
61128;BME280;47013;42.664;23.242;2023-04-08T01:33:02;94092.50;;;4.80;77.14
61128;BME280;47013;42.664;23.242;2023-04-08T01:35:28;94088.69;;;4.81;76.61
61128;BME280;47013;42.664;23.242;2023-04-08T01:37:54;94092.13;;;4.81;77.34
61128;BME280;47013;42.664;23.242;2023-04-08T01:40:20;94091.38;;;4.81;77.03
61128;BME280;47013;42.664;23.242;2023-04-08T01:42:49;94092.13;;;4.81;77.10
61128;BME280;47013;42.664;23.242;2023-04-08T01:45:16;94093.72;;;4.82;77.01
61128;BME280;47013;42.664;23.242;2023-04-08T01:47:43;94094.47;;;4.83;76.95
61128;BME280;47013;42.664;23.242;2023-04-08T01:50:09;94091.44;;;4.84;77.09
61128;BME280;47013;42.664;23.242;2023-04-08T01:52:34;94100.25;;;4.85;77.62
61128;BME280;47013;42.664;23.242;2023-04-08T01:55:01;94096.44;;;4.86;77.04
61128;BME280;47013;42.664;23.242;2023-04-08T01:57:27;94099.50;;;4.84;77.00
61128;BME280;47013;42.664;23.242;2023-04-08T01:59:55;94100.25;;;4.85;76.37
61128;BME280;47013;42.664;23.242;2023-04-08T02:02:24;94106.78;;;4.84;77.07
61128;BME280;47013;42.664;23.242;2023-04-08T02:04:51;94108.63;;;4.80;77.25
61128;BME280;47013;42.664;23.242;2023-04-08T02:07:17;94112.81;;;4.77;76.74
61128;BME280;47013;42.664;23.242;2023-04-08T02:09:42;94110.09;;;4.73;76.64
61128;BME280;47013;42.664;23.242;2023-04-08T02:12:08;94123.94;;;4.76;76.97
61128;BME280;47013;42.664;23.242;2023-04-08T02:14:33;94116.63;;;4.76;76.70
61128;BME280;47013;42.664;23.242;2023-04-08T02:17:04;94118.59;;;4.79;76.34
61128;BME280;47013;42.664;23.242;2023-04-08T02:19:51;94119.78;;;4.82;76.00
61128;BME280;47013;42.664;23.242;2023-04-08T02:22:37;94114.84;;;4.84;75.94
61128;BME280;47013;42.664;23.242;2023-04-08T02:25:05;94120.97;;;4.84;75.43
61128;BME280;47013;42.664;23.242;2023-04-08T02:27:33;94119.06;;;4.85;76.32
61128;BME280;47013;42.664;23.242;2023-04-08T02:29:59;94126.41;;;4.88;76.55
61128;BME280;47013;42.664;23.242;2023-04-08T02:32:27;94124.88;;;4.90;76.57
61128;BME280;47013;42.664;23.242;2023-04-08T02:34:54;94111.81;;;4.89;77.02
61128;BME280;47013;42.664;23.242;2023-04-08T02:37:20;94120.22;;;4.84;77.23
61128;BME280;47013;42.664;23.242;2023-04-08T02:39:45;94119.47;;;4.87;76.95
61128;BME280;47013;42.664;23.242;2023-04-08T02:42:11;94123.34;;;4.89;76.95
61128;BME280;47013;42.664;23.242;2023-04-08T02:44:36;94127.19;;;4.92;76.84
61128;BME280;47013;42.664;23.242;2023-04-08T02:47:01;94116.47;;;4.92;76.71
61128;BME280;47013;42.664;23.242;2023-04-08T02:49:26;94114.94;;;4.94;76.73
61128;BME280;47013;42.664;23.242;2023-04-08T02:51:52;94117.28;;;4.96;76.56
61128;BME280;47013;42.664;23.242;2023-04-08T02:54:17;94113.47;;;4.97;75.59
61128;BME280;47013;42.664;23.242;2023-04-08T02:56:42;94115.00;;;4.98;75.86
61128;BME280;47013;42.664;23.242;2023-04-08T02:59:08;94115.00;;;4.98;76.11
61128;BME280;47013;42.664;23.242;2023-04-08T03:01:33;94113.09;;;4.98;76.06
61128;BME280;47013;42.664;23.242;2023-04-08T03:03:58;94122.31;;;4.97;76.10
61128;BME280;47013;42.664;23.242;2023-04-08T03:06:23;94118.84;;;4.97;75.40
61128;BME280;47013;42.664;23.242;2023-04-08T03:08:49;94115.00;;;4.98;76.23
61128;BME280;47013;42.664;23.242;2023-04-08T03:11:15;94118.06;;;4.96;76.25
61128;BME280;47013;42.664;23.242;2023-04-08T03:13:40;94111.16;;;4.95;76.42
61128;BME280;47013;42.664;23.242;2023-04-08T03:16:05;94115.00;;;4.98;77.33
61128;BME280;47013;42.664;23.242;2023-04-08T03:18:33;94112.72;;;5.00;77.51
61128;BME280;47013;42.664;23.242;2023-04-08T03:20:58;94114.28;;;5.01;77.30
61128;BME280;47013;42.664;23.242;2023-04-08T03:23:25;94115.81;;;5.02;76.98
61128;BME280;47013;42.664;23.242;2023-04-08T03:25:50;94118.13;;;5.03;76.20
61128;BME280;47013;42.664;23.242;2023-04-08T03:28:15;94115.50;;;5.07;76.19
61128;BME280;47013;42.664;23.242;2023-04-08T03:30:41;94111.63;;;5.04;75.81
61128;BME280;47013;42.664;23.242;2023-04-08T03:33:06;94121.63;;;5.08;75.80
61128;BME280;47013;42.664;23.242;2023-04-08T03:35:32;94117.00;;;5.04;75.86
61128;BME280;47013;42.664;23.242;2023-04-08T03:37:57;94117.38;;;5.03;75.57
61128;BME280;47013;42.664;23.242;2023-04-08T03:40:22;94123.16;;;5.05;76.10
61128;BME280;47013;42.664;23.242;2023-04-08T03:42:48;94122.00;;;5.06;76.36
61128;BME280;47013;42.664;23.242;2023-04-08T03:45:13;94120.09;;;5.07;76.09
61128;BME280;47013;42.664;23.242;2023-04-08T03:47:38;94114.38;;;5.08;76.24
61128;BME280;47013;42.664;23.242;2023-04-08T03:50:03;94120.88;;;5.07;76.02
61128;BME280;47013;42.664;23.242;2023-04-08T03:52:29;94117.78;;;5.05;76.12
61128;BME280;47013;42.664;23.242;2023-04-08T03:54:54;94118.91;;;5.04;76.46
61128;BME280;47013;42.664;23.242;2023-04-08T03:57:20;94116.22;;;5.04;76.70
61128;BME280;47013;42.664;23.242;2023-04-08T03:59:45;94120.47;;;5.05;77.01
61128;BME280;47013;42.664;23.242;2023-04-08T04:02:10;94127.72;;;5.01;77.15
61128;BME280;47013;42.664;23.242;2023-04-08T04:04:35;94118.84;;;4.97;77.23
61128;BME280;47013;42.664;23.242;2023-04-08T04:07:01;94119.22;;;4.95;77.33
61128;BME280;47013;42.664;23.242;2023-04-08T04:09:26;94118.44;;;4.95;77.03
61128;BME280;47013;42.664;23.242;2023-04-08T04:11:51;94120.69;;;4.93;77.40
61128;BME280;47013;42.664;23.242;2023-04-08T04:14:17;94121.81;;;4.92;77.67
61128;BME280;47013;42.664;23.242;2023-04-08T04:16:43;94124.88;;;4.90;77.75
61128;BME280;47013;42.664;23.242;2023-04-08T04:19:08;94130.63;;;4.89;77.92
61128;BME280;47013;42.664;23.242;2023-04-08T04:21:34;94120.63;;;4.86;77.72
61128;BME280;47013;42.664;23.242;2023-04-08T04:23:59;94130.59;;;4.85;77.72
61128;BME280;47013;42.664;23.242;2023-04-08T04:26:24;94129.03;;;4.84;78.11
61128;BME280;47013;42.664;23.242;2023-04-08T04:28:49;94129.81;;;4.85;78.11
61128;BME280;47013;42.664;23.242;2023-04-08T04:31:21;94127.13;;;4.85;77.46
61128;BME280;47013;42.664;23.242;2023-04-08T04:33:47;94129.81;;;4.85;77.67
61128;BME280;47013;42.664;23.242;2023-04-08T04:36:13;94138.28;;;4.87;78.16
61128;BME280;47013;42.664;23.242;2023-04-08T04:38:38;94131.34;;;4.86;78.03
61128;BME280;47013;42.664;23.242;2023-04-08T04:41:03;94131.75;;;4.88;77.34
61128;BME280;47013;42.664;23.242;2023-04-08T04:43:29;94133.31;;;4.89;78.07
61128;BME280;47013;42.664;23.242;2023-04-08T04:45:54;94130.25;;;4.90;77.82
61128;BME280;47013;42.664;23.242;2023-04-08T04:48:21;94132.16;;;4.90;77.50
61128;BME280;47013;42.664;23.242;2023-04-08T04:50:53;94131.81;;;4.91;76.94
61128;BME280;47013;42.664;23.242;2023-04-08T04:53:18;94136.41;;;4.91;77.32
61128;BME280;47013;42.664;23.242;2023-04-08T04:55:43;94134.50;;;4.91;77.24
61128;BME280;47013;42.664;23.242;2023-04-08T04:58:09;94143.72;;;4.94;77.37
61128;BME280;47013;42.664;23.242;2023-04-08T05:00:34;94143.03;;;4.97;77.07
61128;BME280;47013;42.664;23.242;2023-04-08T05:02:59;94142.66;;;4.98;76.76
61128;BME280;47013;42.664;23.242;2023-04-08T05:05:25;94135.41;;;5.02;77.20
61128;BME280;47013;42.664;23.242;2023-04-08T05:07:50;94142.72;;;5.06;76.94
61128;BME280;47013;42.664;23.242;2023-04-08T05:10:15;94146.25;;;5.10;76.42
61128;BME280;47013;42.664;23.242;2023-04-08T05:12:41;94141.69;;;5.14;76.13
61128;BME280;47013;42.664;23.242;2023-04-08T05:15:06;94145.19;;;5.18;75.55
61128;BME280;47013;42.664;23.242;2023-04-08T05:17:31;94142.50;;;5.18;75.75
61128;BME280;47013;42.664;23.242;2023-04-08T05:19:57;94141.72;;;5.17;76.25
61128;BME280;47013;42.664;23.242;2023-04-08T05:22:22;94146.03;;;5.22;76.84
61128;BME280;47013;42.664;23.242;2023-04-08T05:24:47;94144.47;;;5.21;75.98
61128;BME280;47013;42.664;23.242;2023-04-08T05:27:12;94132.63;;;5.25;75.52
61128;BME280;47013;42.664;23.242;2023-04-08T05:29:38;94141.31;;;5.15;75.58
61128;BME280;47013;42.664;23.242;2023-04-08T05:32:03;94134.91;;;5.23;76.31
61128;BME280;47013;42.664;23.242;2023-04-08T05:34:30;94140.34;;;5.30;75.01
61128;BME280;47013;42.664;23.242;2023-04-08T05:36:55;94142.38;;;5.37;74.71
61128;BME280;47013;42.664;23.242;2023-04-08T05:39:21;94143.97;;;5.45;74.37
61128;BME280;47013;42.664;23.242;2023-04-08T05:41:46;94150.22;;;5.53;73.99
61128;BME280;47013;42.664;23.242;2023-04-08T05:44:12;94147.25;;;5.61;73.85
61128;BME280;47013;42.664;23.242;2023-04-08T05:46:38;94147.31;;;5.69;73.37
61128;BME280;47013;42.664;23.242;2023-04-08T05:49:03;94148.78;;;5.62;72.25
61128;BME280;47013;42.664;23.242;2023-04-08T05:51:28;94146.53;;;5.68;72.63
61128;BME280;47013;42.664;23.242;2023-04-08T05:53:54;94137.78;;;5.75;72.47
61128;BME280;47013;42.664;23.242;2023-04-08T05:56:19;94146.13;;;5.66;71.69
61128;BME280;47013;42.664;23.242;2023-04-08T05:58:45;94143.09;;;5.71;72.15
61128;BME280;47013;42.664;23.242;2023-04-08T06:01:11;94139.50;;;5.56;71.49
61128;BME280;47013;42.664;23.242;2023-04-08T06:03:36;94141.34;;;5.49;71.79
61128;BME280;47013;42.664;23.242;2023-04-08T06:06:01;94140.66;;;5.59;72.09
61128;BME280;47013;42.664;23.242;2023-04-08T06:08:27;94137.34;;;5.73;71.92
61128;BME280;47013;42.664;23.242;2023-04-08T06:10:52;94133.63;;;5.84;71.83
61128;BME280;47013;42.664;23.242;2023-04-08T06:13:17;94143.75;;;5.95;71.46
61128;BME280;47013;42.664;23.242;2023-04-08T06:15:44;94130.69;;;5.97;71.31
61128;BME280;47013;42.664;23.242;2023-04-08T06:18:09;94144.50;;;5.91;71.37
61128;BME280;47013;42.664;23.242;2023-04-08T06:20:35;94137.31;;;5.69;71.15
61128;BME280;47013;42.664;23.242;2023-04-08T06:23:00;94143.41;;;5.62;72.17
61128;BME280;47013;42.664;23.242;2023-04-08T06:25:25;94148.16;;;5.76;72.86
61128;BME280;47013;42.664;23.242;2023-04-08T06:27:51;94145.25;;;5.92;71.90
61128;BME280;47013;42.664;23.242;2023-04-08T06:30:16;94141.19;;;6.09;71.22
61128;BME280;47013;42.664;23.242;2023-04-08T06:32:42;94146.31;;;6.25;71.13
61128;BME280;47013;42.664;23.242;2023-04-08T06:35:07;94143.75;;;6.39;70.48
61128;BME280;47013;42.664;23.242;2023-04-08T06:37:32;94144.25;;;6.55;69.78
61128;BME280;47013;42.664;23.242;2023-04-08T06:40:02;94145.53;;;6.75;70.08
61128;BME280;47013;42.664;23.242;2023-04-08T06:42:27;94135.97;;;6.89;68.67
61128;BME280;47013;42.664;23.242;2023-04-08T06:44:53;94151.44;;;6.92;68.25
61128;BME280;47013;42.664;23.242;2023-04-08T06:47:18;94151.28;;;6.70;68.18
61128;BME280;47013;42.664;23.242;2023-04-08T06:49:43;94146.75;;;6.82;68.27
61128;BME280;47013;42.664;23.242;2023-04-08T06:52:11;94146.41;;;6.90;67.98
61128;BME280;47013;42.664;23.242;2023-04-08T06:54:36;94151.75;;;6.87;67.91
61128;BME280;47013;42.664;23.242;2023-04-08T06:57:02;94147.03;;;6.69;68.01
61128;BME280;47013;42.664;23.242;2023-04-08T06:59:28;94151.28;;;6.74;68.69
61128;BME280;47013;42.664;23.242;2023-04-08T07:01:53;94147.53;;;6.86;68.96
61128;BME280;47013;42.664;23.242;2023-04-08T07:04:19;94148.31;;;6.90;68.76
61128;BME280;47013;42.664;23.242;2023-04-08T07:06:44;94149.13;;;6.97;67.69
61128;BME280;47013;42.664;23.242;2023-04-08T07:09:10;94154.59;;;7.08;66.95
61128;BME280;47013;42.664;23.242;2023-04-08T07:11:36;94149.59;;;7.06;67.05
61128;BME280;47013;42.664;23.242;2023-04-08T07:14:01;94160.75;;;7.12;67.37
61128;BME280;47013;42.664;23.242;2023-04-08T07:16:26;94153.50;;;7.20;67.04
61128;BME280;47013;42.664;23.242;2023-04-08T07:18:52;94155.44;;;7.26;66.54
61128;BME280;47013;42.664;23.242;2023-04-08T07:21:17;94156.66;;;7.36;66.73
61128;BME280;47013;42.664;23.242;2023-04-08T07:23:42;94164.78;;;7.47;66.35
61128;BME280;47013;42.664;23.242;2023-04-08T07:26:08;94164.06;;;7.57;65.55
61128;BME280;47013;42.664;23.242;2023-04-08T07:28:33;94163.28;;;7.56;65.41
61128;BME280;47013;42.664;23.242;2023-04-08T07:33:53;94167.53;;;7.68;63.64
61128;BME280;47013;42.664;23.242;2023-04-08T07:36:18;94171.00;;;7.58;64.08
61128;BME280;47013;42.664;23.242;2023-04-08T07:38:43;94169.47;;;7.57;63.71
61128;BME280;47013;42.664;23.242;2023-04-08T07:41:08;94175.25;;;7.59;63.59
61128;BME280;47013;42.664;23.242;2023-04-08T07:43:34;94170.81;;;8.55;82.50
61128;BME280;47013;42.664;23.242;2023-04-08T07:46:01;94175.81;;;8.57;64.62
61128;BME280;47013;42.664;23.242;2023-04-08T07:48:27;94181.25;;;8.46;64.27
61128;BME280;47013;42.664;23.242;2023-04-08T07:50:52;94192.81;;;8.40;63.97
61128;BME280;47013;42.664;23.242;2023-04-08T07:53:17;94197.69;;;7.84;64.83
61128;BME280;47013;42.664;23.242;2023-04-08T07:55:43;94190.28;;;7.63;65.31
61128;BME280;47013;42.664;23.242;2023-04-08T07:58:09;94191.06;;;7.64;66.50
61128;BME280;47013;42.664;23.242;2023-04-08T08:00:34;94180.31;;;7.78;66.71
61128;BME280;47013;42.664;23.242;2023-04-08T08:03:03;94188.06;;;7.90;66.39
61128;BME280;47013;42.664;23.242;2023-04-08T08:05:28;94181.16;;;7.96;65.90
61128;BME280;47013;42.664;23.242;2023-04-08T08:07:53;94186.41;;;7.57;67.43
61128;BME280;47013;42.664;23.242;2023-04-08T08:10:18;94194.91;;;7.66;66.93
61128;BME280;47013;42.664;23.242;2023-04-08T08:12:44;94195.00;;;7.88;65.89
61128;BME280;47013;42.664;23.242;2023-04-08T08:15:09;94197.72;;;8.06;65.93
61128;BME280;47013;42.664;23.242;2023-04-08T08:17:35;94190.81;;;8.08;66.55
61128;BME280;47013;42.664;23.242;2023-04-08T08:20:00;94194.25;;;8.02;66.12
61128;BME280;47013;42.664;23.242;2023-04-08T08:22:25;94197.31;;;7.93;65.92
61128;BME280;47013;42.664;23.242;2023-04-08T08:24:57;94201.94;;;7.92;65.98
61128;BME280;47013;42.664;23.242;2023-04-08T08:27:23;94195.03;;;8.02;66.56
61128;BME280;47013;42.664;23.242;2023-04-08T08:29:48;94193.09;;;8.06;65.99
61128;BME280;47013;42.664;23.242;2023-04-08T08:32:14;94190.81;;;8.19;66.15
61128;BME280;47013;42.664;23.242;2023-04-08T08:34:39;94185.84;;;8.92;100.00
61128;BME280;47013;42.664;23.242;2023-04-08T08:37:05;94193.81;;;9.60;70.72
61128;BME280;47013;42.664;23.242;2023-04-08T08:39:30;94193.75;;;9.78;65.72
61128;BME280;47013;42.664;23.242;2023-04-08T08:41:56;94202.66;;;9.74;63.61
61128;BME280;47013;42.664;23.242;2023-04-08T08:44:21;94198.84;;;9.58;62.74
61128;BME280;47013;42.664;23.242;2023-04-08T08:46:46;94195.06;;;9.34;62.26
61128;BME280;47013;42.664;23.242;2023-04-08T08:49:12;94194.38;;;8.80;64.32
61128;BME280;47013;42.664;23.242;2023-04-08T08:51:38;94190.88;;;8.94;65.01
61128;BME280;47013;42.664;23.242;2023-04-08T08:54:04;94190.09;;;8.93;65.07
61128;BME280;47013;42.664;23.242;2023-04-08T08:56:29;94193.97;;;8.71;64.90
61128;BME280;47013;42.664;23.242;2023-04-08T08:58:55;94189.75;;;8.63;66.42
61128;BME280;47013;42.664;23.242;2023-04-08T09:04:05;94197.00;;;8.30;67.64
61128;BME280;47013;42.664;23.242;2023-04-08T09:06:31;94195.13;;;8.59;67.53
61128;BME280;47013;42.664;23.242;2023-04-08T09:08:56;94190.13;;;8.65;68.12
61128;BME280;47013;42.664;23.242;2023-04-08T09:11:21;94192.03;;;8.82;67.00
61128;BME280;47013;42.664;23.242;2023-04-08T09:13:47;94190.50;;;8.77;66.75
61128;BME280;47013;42.664;23.242;2023-04-08T09:16:13;94198.22;;;8.93;65.72
61128;BME280;47013;42.664;23.242;2023-04-08T09:18:40;94195.13;;;9.12;64.31
61128;BME280;47013;42.664;23.242;2023-04-08T09:21:08;94199.72;;;9.26;62.91
61128;BME280;47013;42.664;23.242;2023-04-08T09:23:44;94189.97;;;9.50;62.80
61128;BME280;47013;42.664;23.242;2023-04-08T09:26:13;94186.47;;;9.57;62.82
61128;BME280;47013;42.664;23.242;2023-04-08T09:28:39;94188.78;;;9.65;61.37
61128;BME280;47013;42.664;23.242;2023-04-08T09:31:23;94187.19;;;9.71;62.27
61128;BME280;47013;42.664;23.242;2023-04-08T09:33:50;94187.53;;;9.84;61.47
61128;BME280;47013;42.664;23.242;2023-04-08T09:36:16;94183.63;;;9.92;60.83
61128;BME280;47013;42.664;23.242;2023-04-08T09:38:42;94187.91;;;9.86;59.36
61128;BME280;47013;42.664;23.242;2023-04-08T09:41:08;94180.13;;;9.95;61.45
61128;BME280;47013;42.664;23.242;2023-04-08T09:43:40;94176.91;;;10.15;59.58
61128;BME280;47013;42.664;23.242;2023-04-08T09:46:06;94171.88;;;10.17;60.56
61128;BME280;47013;42.664;23.242;2023-04-08T09:48:36;94167.50;;;10.37;61.59
61128;BME280;47013;42.664;23.242;2023-04-08T09:51:03;94173.28;;;10.43;59.80
61128;BME280;47013;42.664;23.242;2023-04-08T09:53:41;94177.63;;;10.33;60.80
61128;BME280;47013;42.664;23.242;2023-04-08T09:56:10;94174.81;;;10.47;57.97
61128;BME280;47013;42.664;23.242;2023-04-08T09:58:48;94176.22;;;10.62;57.85
61128;BME280;47013;42.664;23.242;2023-04-08T10:01:16;94165.13;;;10.91;57.78
61128;BME280;47013;42.664;23.242;2023-04-08T10:03:47;94162.69;;;11.07;58.30
61128;BME280;47013;42.664;23.242;2023-04-08T10:06:13;94167.84;;;10.95;55.88
61128;BME280;47013;42.664;23.242;2023-04-08T10:08:39;94169.38;;;10.92;55.44
61128;BME280;47013;42.664;23.242;2023-04-08T10:11:05;94157.63;;;11.06;54.66
61128;BME280;47013;42.664;23.242;2023-04-08T10:13:30;94157.44;;;11.61;54.67
61128;BME280;47013;42.664;23.242;2023-04-08T10:18:46;94150.91;;;11.89;52.88
61128;BME280;47013;42.664;23.242;2023-04-08T10:21:30;94149.59;;;12.01;53.76
61128;BME280;47013;42.664;23.242;2023-04-08T10:23:58;94154.81;;;11.88;53.70
61128;BME280;47013;42.664;23.242;2023-04-08T10:26:41;94157.75;;;11.67;52.60
61128;BME280;47013;42.664;23.242;2023-04-08T10:31:47;94146.00;;;11.46;54.49
61128;BME280;47013;42.664;23.242;2023-04-08T10:34:22;94153.25;;;11.19;55.86
61128;BME280;47013;42.664;23.242;2023-04-08T10:36:49;94144.94;;;10.99;56.12
61128;BME280;47013;42.664;23.242;2023-04-08T10:39:15;94145.75;;;10.92;56.49
61128;BME280;47013;42.664;23.242;2023-04-08T10:41:47;94138.50;;;10.82;57.35
61128;BME280;47013;42.664;23.242;2023-04-08T10:44:18;94132.69;;;10.80;57.18
61128;BME280;47013;42.664;23.242;2023-04-08T10:46:45;94128.66;;;10.99;57.39
61128;BME280;47013;42.664;23.242;2023-04-08T10:49:11;94125.22;;;10.91;57.34
61128;BME280;47013;42.664;23.242;2023-04-08T10:51:36;94127.31;;;11.14;56.51
61128;BME280;47013;42.664;23.242;2023-04-08T10:54:09;94123.25;;;11.33;55.99
61128;BME280;47013;42.664;23.242;2023-04-08T10:56:35;94121.00;;;11.25;55.76
61128;BME280;47013;42.664;23.242;2023-04-08T10:59:00;94122.34;;;11.09;56.39
61128;BME280;47013;42.664;23.242;2023-04-08T11:01:26;94127.16;;;11.29;57.21
61128;BME280;47013;42.664;23.242;2023-04-08T11:03:51;94118.19;;;11.35;57.18
61128;BME280;47013;42.664;23.242;2023-04-08T11:06:17;94115.78;;;11.41;56.31
61128;BME280;47013;42.664;23.242;2023-04-08T11:08:43;94110.69;;;11.77;55.85
61128;BME280;47013;42.664;23.242;2023-04-08T11:11:11;94108.09;;;11.66;54.67
61128;BME280;47013;42.664;23.242;2023-04-08T11:13:40;94105.63;;;11.48;54.39
61128;BME280;47013;42.664;23.242;2023-04-08T11:16:07;94094.53;;;11.36;54.74
61128;BME280;47013;42.664;23.242;2023-04-08T11:18:33;94095.78;;;11.58;54.89
61128;BME280;47013;42.664;23.242;2023-04-08T11:20:58;94087.75;;;11.51;54.51
61128;BME280;47013;42.664;23.242;2023-04-08T11:23:24;94082.34;;;11.78;55.77
61128;BME280;47013;42.664;23.242;2023-04-08T11:25:50;94087.06;;;11.74;54.32
61128;BME280;47013;42.664;23.242;2023-04-08T11:28:15;94087.09;;;11.70;54.54
61128;BME280;47013;42.664;23.242;2023-04-08T11:30:41;94082.84;;;11.69;54.13
61128;BME280;47013;42.664;23.242;2023-04-08T11:33:09;94082.88;;;11.66;53.93
61128;BME280;47013;42.664;23.242;2023-04-08T11:35:40;94085.84;;;11.48;53.95
61128;BME280;47013;42.664;23.242;2023-04-08T11:38:05;94079.00;;;11.36;53.59
61128;BME280;47013;42.664;23.242;2023-04-08T11:40:32;94074.81;;;11.59;53.68
61128;BME280;47013;42.664;23.242;2023-04-08T11:42:57;94063.22;;;11.89;52.29
61128;BME280;47013;42.664;23.242;2023-04-08T11:45:22;94065.00;;;11.99;52.92
61128;BME280;47013;42.664;23.242;2023-04-08T11:47:47;94057.81;;;12.12;51.15
61128;BME280;47013;42.664;23.242;2023-04-08T11:50:23;94052.91;;;12.03;51.69
61128;BME280;47013;42.664;23.242;2023-04-08T11:52:51;94062.63;;;11.74;51.34
61128;BME280;47013;42.664;23.242;2023-04-08T11:55:35;94058.53;;;11.59;50.63
61128;BME280;47013;42.664;23.242;2023-04-08T11:58:03;94059.53;;;11.41;51.03
61128;BME280;47013;42.664;23.242;2023-04-08T12:00:30;94050.41;;;11.28;51.36
61128;BME280;47013;42.664;23.242;2023-04-08T12:02:55;94046.06;;;11.34;51.99
61128;BME280;47013;42.664;23.242;2023-04-08T12:05:20;94041.91;;;11.26;52.29
61128;BME280;47013;42.664;23.242;2023-04-08T12:07:48;94042.72;;;11.19;51.95
61128;BME280;47013;42.664;23.242;2023-04-08T12:10:13;94038.69;;;11.35;52.48
61128;BME280;47013;42.664;23.242;2023-04-08T12:12:39;94038.94;;;11.13;52.19
61128;BME280;47013;42.664;23.242;2023-04-08T12:15:05;94034.00;;;11.05;53.21
61128;BME280;47013;42.664;23.242;2023-04-08T12:17:30;94036.88;;;10.90;54.03
61128;BME280;47013;42.664;23.242;2023-04-08T12:19:55;94037.19;;;10.62;54.28
61128;BME280;47013;42.664;23.242;2023-04-08T12:22:21;94036.72;;;10.67;55.04
61128;BME280;47013;42.664;23.242;2023-04-08T12:24:46;94032.47;;;10.66;55.36
61128;BME280;47013;42.664;23.242;2023-04-08T12:27:11;94018.31;;;10.51;55.60
61128;BME280;47013;42.664;23.242;2023-04-08T12:29:37;94028.88;;;10.42;56.46
61128;BME280;47013;42.664;23.242;2023-04-08T12:32:02;94037.78;;;10.39;56.66
61128;BME280;47013;42.664;23.242;2023-04-08T12:34:29;94032.06;;;10.30;55.65
61128;BME280;47013;42.664;23.242;2023-04-08T12:36:54;94025.91;;;10.26;54.98
61128;BME280;47013;42.664;23.242;2023-04-08T12:39:20;94032.53;;;10.14;55.83
61128;BME280;47013;42.664;23.242;2023-04-08T12:41:46;94029.91;;;10.07;55.70
61128;BME280;47013;42.664;23.242;2023-04-08T12:44:11;94035.28;;;10.11;55.43
61128;BME280;47013;42.664;23.242;2023-04-08T12:46:37;94033.34;;;10.11;55.74
61128;BME280;47013;42.664;23.242;2023-04-08T12:49:02;94031.97;;;9.89;57.77
61128;BME280;47013;42.664;23.242;2023-04-08T12:51:27;94043.25;;;9.80;59.04
61128;BME280;47013;42.664;23.242;2023-04-08T12:53:53;94041.75;;;9.72;61.45
61128;BME280;47013;42.664;23.242;2023-04-08T12:56:18;94042.13;;;9.78;66.55
61128;BME280;47013;42.664;23.242;2023-04-08T12:58:44;94051.78;;;9.75;65.45
61128;BME280;47013;42.664;23.242;2023-04-08T13:01:09;94044.41;;;9.83;65.27
61128;BME280;47013;42.664;23.242;2023-04-08T13:03:39;94038.94;;;9.90;64.64
61128;BME280;47013;42.664;23.242;2023-04-08T13:06:06;94033.69;;;10.17;71.07
61128;BME280;47013;42.664;23.242;2023-04-08T13:08:32;94032.44;;;10.28;66.54